createdAt,value
2022-09-24T00:01:38.951Z,100006.31
2022-09-24T00:04:09.754Z,100016.97
2022-09-24T00:06:43.202Z,100001.81
2022-09-24T00:09:15.191Z,100003.03
2022-09-24T00:11:44.063Z,99993.22
2022-09-24T00:14:11.943Z,99994.22
2022-09-24T00:16:40.441Z,99996.06
2022-09-24T00:19:07.655Z,99992.28
2022-09-24T00:21:37.392Z,100001.38
2022-09-24T00:24:41.503Z,99999.72
2022-09-24T00:27:08.685Z,99982.69
2022-09-24T00:29:36.037Z,99975.06
2022-09-24T00:32:05.339Z,99980.19
2022-09-24T00:34:33.048Z,99982.94
2022-09-24T00:37:00.044Z,99994.37
2022-09-24T00:39:27.080Z,99970.56
2022-09-24T00:41:54.842Z,99981.28
2022-09-24T00:44:40.830Z,99985.41
2022-09-24T00:47:32.208Z,99987.06
2022-09-24T00:50:06.402Z,99990.53
2022-09-24T00:52:38.429Z,99986.22
2022-09-24T00:55:06.200Z,99971.19
2022-09-24T00:57:34.240Z,99974.50
2022-09-24T01:00:01.385Z,99959.91
2022-09-24T01:02:28.287Z,99979.47
2022-09-24T01:04:56.599Z,99964.25
2022-09-24T01:07:23.873Z,99976.97
2022-09-24T01:09:50.772Z,99974.31
2022-09-24T01:12:45.996Z,99961.56
2022-09-24T01:15:40.445Z,99978.78
2022-09-24T01:18:31.391Z,99974.94
2022-09-24T01:21:25.563Z,99959.09
2022-09-24T01:24:01.822Z,99972.84
2022-09-24T01:26:57.840Z,99979.16
2022-09-24T01:29:30.175Z,99962.75
2022-09-24T01:32:05.327Z,99969.09
2022-09-24T01:34:56.616Z,99974.22
2022-09-24T01:37:26.594Z,99977.91
2022-09-24T01:39:56.671Z,99972.97
2022-09-24T01:42:25.708Z,99985.41
2022-09-24T01:44:52.938Z,99975.63
2022-09-24T01:47:40.384Z,99965.03
2022-09-24T01:50:10.703Z,99980.28
2022-09-24T01:53:02.901Z,99971.66
2022-09-24T01:55:43.624Z,99971.66
2022-09-24T01:58:16.966Z,99967.34
2022-09-24T02:00:49.258Z,99965.69
2022-09-24T02:03:23.400Z,99962.09
2022-09-24T02:05:58.014Z,99970.34
2022-09-24T02:08:33.284Z,99970.72
2022-09-24T02:11:05.279Z,99974.84
2022-09-24T02:13:46.763Z,99974.00
2022-09-24T02:16:17.470Z,99967.31
2022-09-24T02:18:48.194Z,99985.84
2022-09-24T02:21:17.377Z,99981.53
2022-09-24T02:23:51.473Z,99981.91
2022-09-24T02:26:18.386Z,99990.69
2022-09-24T02:28:46.486Z,99985.75
2022-09-24T02:31:29.208Z,99984.47
2022-09-24T02:34:19.219Z,99984.47
2022-09-24T02:36:47.185Z,99985.75
2022-09-24T02:39:14.448Z,99976.03
2022-09-24T02:41:42.711Z,99993.72
2022-09-24T02:44:09.580Z,99981.34
2022-09-24T02:46:36.810Z,99992.28
2022-09-24T02:49:03.624Z,99991.91
2022-09-24T02:51:30.522Z,99991.06
2022-09-24T02:53:57.937Z,99984.66
2022-09-24T02:56:24.746Z,100001.69
2022-09-24T02:58:51.634Z,99993.72
2022-09-24T03:01:19.774Z,100000.06
2022-09-24T03:03:47.119Z,99989.25
2022-09-24T03:06:14.767Z,100002.72
2022-09-24T03:08:43.354Z,100002.72
2022-09-24T03:11:16.349Z,100006.19
2022-09-24T03:13:45.772Z,99988.69
2022-09-24T03:16:12.623Z,99984.19
2022-09-24T03:18:39.623Z,99996.56
2022-09-24T03:21:09.954Z,99996.75
2022-09-24T03:23:37.079Z,99999.22
2022-09-24T03:26:04.582Z,100002.72
2022-09-24T03:28:32.282Z,99988.69
2022-09-24T03:31:02.389Z,100000.06
2022-09-24T03:33:42.542Z,100004.34
2022-09-24T03:36:20.751Z,99991.06
2022-09-24T03:38:49.022Z,100000.06
2022-09-24T03:41:17.526Z,100005.38
2022-09-24T03:43:44.685Z,99992.16
2022-09-24T03:46:12.777Z,100002.06
2022-09-24T03:48:41.208Z,100003.72
2022-09-24T03:51:20.113Z,100011.53
2022-09-24T03:53:48.326Z,100007.03
2022-09-24T03:56:16.102Z,100003.53
2022-09-24T03:58:47.688Z,100002.72
2022-09-24T04:01:21.758Z,99996.94
2022-09-24T04:03:50.469Z,100008.31
2022-09-24T04:06:20.736Z,100003.37
2022-09-24T04:08:51.176Z,99991.78
2022-09-24T04:11:18.059Z,100006.19
2022-09-24T04:13:44.991Z,99999.41
2022-09-24T04:16:12.207Z,99999.03
2022-09-24T04:18:39.725Z,100000.88
2022-09-24T04:21:06.824Z,100012.34
2022-09-24T04:23:34.086Z,100009.69
2022-09-24T04:26:02.382Z,99998.41
2022-09-24T04:28:30.223Z,100006.19
2022-09-24T04:30:58.434Z,100015.66
2022-09-24T04:33:25.857Z,99995.94
2022-09-24T04:35:52.719Z,100013.63
2022-09-24T04:38:21.402Z,100015.28
2022-09-24T04:40:49.082Z,100008.84
2022-09-24T04:43:16.171Z,100013.63
2022-09-24T04:45:44.998Z,100010.59
2022-09-24T04:48:12.097Z,100016.94
2022-09-24T04:50:44.805Z,100018.59
2022-09-24T04:53:12.974Z,100015.12
2022-09-24T04:55:39.911Z,100017.59
2022-09-24T04:58:06.698Z,100018.59
2022-09-24T05:00:33.795Z,100021.88
2022-09-24T05:03:05.094Z,100013.75
2022-09-24T05:05:33.987Z,100012.56
2022-09-24T05:08:02.191Z,100014.22
2022-09-24T05:10:33.139Z,100010.56
2022-09-24T05:13:00.986Z,100010.19
2022-09-24T05:15:28.175Z,100017.16
2022-09-24T05:17:55.049Z,100014.13
2022-09-24T05:20:21.899Z,100005.88
2022-09-24T05:22:50.415Z,100004.69
2022-09-24T05:25:19.407Z,100019.38
2022-09-24T05:27:52.938Z,100027.81
2022-09-24T05:30:22.330Z,100024.78
2022-09-24T05:32:52.028Z,100020.28
2022-09-24T05:35:23.440Z,100014.41
2022-09-24T05:37:53.430Z,100017.88
2022-09-24T05:40:40.186Z,100017.16
2022-09-24T05:43:07.528Z,100022.91
2022-09-24T05:45:34.486Z,100026.69
2022-09-24T05:48:01.484Z,100022.66
2022-09-24T05:50:28.967Z,100010.53
2022-09-24T05:52:56.286Z,100025.19
2022-09-24T05:55:23.290Z,100021.16
2022-09-24T05:57:50.587Z,100018.75
2022-09-24T06:00:17.486Z,100018.41
2022-09-24T06:02:44.732Z,100015.16
2022-09-24T06:05:12.446Z,100019.94
2022-09-24T06:07:39.763Z,100020.19
2022-09-24T06:10:07.652Z,100020.19
2022-09-24T06:12:35.018Z,100028.78
2022-09-24T06:15:02.334Z,100013.19
2022-09-24T06:17:29.523Z,100013.56
2022-09-24T06:19:58.164Z,100023.94
2022-09-24T06:22:28.354Z,100022.38
2022-09-24T06:24:56.511Z,100032.44
2022-09-24T06:27:23.485Z,100036.00
2022-09-24T06:29:50.455Z,100034.22
2022-09-24T06:32:19.848Z,100031.66
2022-09-24T06:34:47.230Z,100038.69
2022-09-24T06:37:14.160Z,100045.53
2022-09-24T06:39:41.309Z,100052.94
2022-09-24T06:42:08.455Z,100044.81
2022-09-24T06:44:35.879Z,100051.41
2022-09-24T06:47:03.712Z,100054.91
2022-09-24T06:49:34.129Z,100053.87
2022-09-24T06:52:02.016Z,100043.41
2022-09-24T06:54:29.135Z,100055.84
2022-09-24T06:56:56.309Z,100061.81
2022-09-24T06:59:23.538Z,100052.16
2022-09-24T07:01:51.121Z,100054.81
2022-09-24T07:04:18.072Z,100055.41
2022-09-24T07:07:03.384Z,100054.97
2022-09-24T07:09:31.165Z,100066.03
2022-09-24T07:12:04.890Z,100053.69
2022-09-24T07:14:32.379Z,100065.00
2022-09-24T07:16:59.551Z,100058.84
2022-09-24T07:19:26.455Z,100062.31
2022-09-24T07:21:53.605Z,100066.66
2022-09-24T07:24:20.633Z,100066.25
2022-09-24T07:26:47.640Z,100072.88
2022-09-24T07:29:14.884Z,100077.44
2022-09-24T07:31:41.991Z,100079.72
2022-09-24T07:34:11.900Z,100080.59
2022-09-24T07:36:39.371Z,100073.06
2022-09-24T07:39:06.863Z,100065.78
2022-09-24T07:41:38.624Z,100076.56
2022-09-24T07:44:09.869Z,100084.56
2022-09-24T07:46:37.009Z,100085.00
2022-09-24T07:49:04.164Z,100082.56
2022-09-24T07:51:32.190Z,100075.00
2022-09-24T07:53:59.270Z,100083.25
2022-09-24T07:56:26.377Z,100079.59
2022-09-24T07:58:54.054Z,100074.06
2022-09-24T08:01:21.344Z,100079.25
2022-09-24T08:03:48.789Z,100086.50
2022-09-24T08:06:15.853Z,100081.75
2022-09-24T08:08:43.642Z,100088.75
2022-09-24T08:11:17.303Z,100083.66
2022-09-24T08:13:45.348Z,100090.47
2022-09-24T08:16:13.082Z,100083.97
2022-09-24T08:18:40.407Z,100091.00
2022-09-24T08:21:10.941Z,100099.22
2022-09-24T08:23:40.132Z,100097.38
2022-09-24T08:26:07.551Z,100100.44
2022-09-24T08:28:34.669Z,100081.53
2022-09-24T08:31:04.944Z,100096.34
2022-09-24T08:33:32.757Z,100107.91
2022-09-24T08:36:01.105Z,100106.50
2022-09-24T08:38:28.407Z,100112.66
2022-09-24T08:41:26.038Z,100103.16
2022-09-24T08:44:03.935Z,100106.91
2022-09-24T08:47:08.615Z,100104.03
2022-09-24T08:49:43.359Z,100110.84
2022-09-24T08:52:19.987Z,100105.09
2022-09-24T08:54:49.334Z,100101.63
2022-09-24T08:57:21.139Z,100105.97
2022-09-24T08:59:53.168Z,100102.06
2022-09-24T09:02:29.495Z,100107.25
2022-09-24T09:05:27.998Z,100096.34
2022-09-24T09:07:55.041Z,100101.50
2022-09-24T09:10:29.168Z,100102.53
2022-09-24T09:13:20.293Z,100095.75
2022-09-24T09:15:57.947Z,100092.25
2022-09-24T09:18:37.626Z,100101.09
2022-09-24T09:21:18.443Z,100096.00
2022-09-24T09:23:50.286Z,100093.34
2022-09-24T09:26:20.201Z,100102.81
2022-09-24T09:28:48.605Z,100094.56
2022-09-24T09:31:44.286Z,100093.75
2022-09-24T09:34:29.803Z,100101.97
2022-09-24T09:37:23.348Z,100076.88
2022-09-24T09:40:11.913Z,100096.03
2022-09-24T09:42:42.840Z,100091.87
2022-09-24T09:45:30.064Z,100095.00
2022-09-24T09:47:57.668Z,100087.78
2022-09-24T09:50:29.418Z,100101.56
2022-09-24T09:52:56.500Z,100086.34
2022-09-24T09:55:31.352Z,100090.47
2022-09-24T09:58:31.750Z,100106.94
2022-09-24T10:01:09.007Z,100099.94
2022-09-24T10:03:56.652Z,100094.37
2022-09-24T10:06:29.332Z,100084.50
2022-09-24T10:09:13.492Z,100079.75
2022-09-24T10:11:42.221Z,100091.69
2022-09-24T10:14:19.265Z,100078.53
2022-09-24T10:16:51.429Z,100091.91
2022-09-24T10:19:28.108Z,100084.50
2022-09-24T10:21:57.658Z,100077.50
2022-09-24T10:24:28.161Z,100067.63
2022-09-24T10:26:55.305Z,100070.66
2022-09-24T10:29:45.541Z,100046.16
2022-09-24T10:32:18.850Z,100072.72
2022-09-24T10:34:56.645Z,100080.94
2022-09-24T10:37:24.414Z,100068.78
2022-09-24T10:40:13.770Z,100074.34
2022-09-24T10:42:41.349Z,100076.81
2022-09-24T10:45:14.231Z,100079.88
2022-09-24T10:47:57.726Z,100084.63
2022-09-24T10:50:43.748Z,100091.41
2022-09-24T10:53:31.717Z,100100.69
2022-09-24T10:56:12.186Z,100086.50
2022-09-24T10:59:00.627Z,100099.31
2022-09-24T11:01:42.753Z,100097.66
2022-09-24T11:04:28.384Z,100101.59
2022-09-24T11:07:17.178Z,100099.31
2022-09-24T11:10:31.131Z,100097.47
2022-09-24T11:13:13.665Z,100098.28
2022-09-24T11:16:16.404Z,100102.78
2022-09-24T11:19:01.704Z,100087.56
2022-09-24T11:21:38.374Z,100102.78
2022-09-24T11:24:24.369Z,100092.09
2022-09-24T11:27:13.603Z,100100.75
2022-09-24T11:30:12.902Z,100078.69
2022-09-24T11:33:15.666Z,100086.72
2022-09-24T11:35:56.759Z,100085.53
2022-09-24T11:38:57.536Z,100077.50
2022-09-24T11:41:58.679Z,100080.97
2022-09-24T11:45:03.425Z,100088.41
2022-09-24T11:47:49.418Z,100098.69
2022-09-24T11:50:25.627Z,100083.69
2022-09-24T11:53:02.521Z,100097.47
2022-09-24T11:56:02.222Z,100100.56
2022-09-24T11:58:56.398Z,100136.78
2022-09-24T12:01:30.288Z,100145.53
2022-09-24T12:04:10.563Z,100146.72
2022-09-24T12:06:52.515Z,100156.72
2022-09-24T12:09:29.027Z,100148.66
2022-09-24T12:12:04.248Z,100140.78
2022-09-24T12:14:58.065Z,100131.34
2022-09-24T12:17:53.182Z,100121.41
2022-09-24T12:20:28.461Z,100119.59
2022-09-24T12:23:11.538Z,100108.25
2022-09-24T12:25:45.226Z,100116.13
2022-09-24T12:28:15.266Z,100112.78
2022-09-24T12:31:12.359Z,100115.47
2022-09-24T12:33:45.763Z,100109.38
2022-09-24T12:36:12.890Z,100112.91
2022-09-24T12:38:47.979Z,100100.81
2022-09-24T12:41:21.031Z,100107.00
2022-09-24T12:43:51.400Z,100109.72
2022-09-24T12:46:23.066Z,100108.78
2022-09-24T12:48:52.047Z,100107.12
2022-09-24T12:51:22.705Z,100108.56
2022-09-24T12:54:32.854Z,100103.81
2022-09-24T12:57:10.268Z,100106.50
2022-09-24T13:00:00.267Z,100100.75
2022-09-24T13:02:45.304Z,100112.88
2022-09-24T13:05:27.326Z,100111.19
2022-09-24T13:08:03.752Z,100102.72
2022-09-24T13:10:35.807Z,100109.72
2022-09-24T13:13:15.621Z,100098.94
2022-09-24T13:15:43.039Z,100105.94
2022-09-24T13:18:11.171Z,100109.59
2022-09-24T13:20:43.779Z,100091.69
2022-09-24T13:23:19.849Z,100104.69
2022-09-24T13:25:57.824Z,100104.28
2022-09-24T13:28:37.729Z,100100.56
2022-09-24T13:31:11.650Z,100091.94
2022-09-24T13:33:48.398Z,100101.81
2022-09-24T13:36:20.110Z,100104.50
2022-09-24T13:39:04.999Z,100090.28
2022-09-24T13:41:59.572Z,100092.94
2022-09-24T13:44:33.531Z,100094.22
2022-09-24T13:47:12.361Z,100083.31
2022-09-24T13:49:45.645Z,100093.81
2022-09-24T13:52:36.087Z,100107.81
2022-09-24T13:55:12.954Z,100088.50
2022-09-24T13:57:47.936Z,100093.84
2022-09-24T14:00:24.722Z,100096.56
2022-09-24T14:03:20.908Z,100106.44
2022-09-24T14:05:50.529Z,100092.47
2022-09-24T14:08:22.091Z,100094.09
2022-09-24T14:10:51.158Z,100094.72
2022-09-24T14:13:22.704Z,100095.94
2022-09-24T14:16:02.657Z,100105.63
2022-09-24T14:18:30.395Z,100103.97
2022-09-24T14:21:17.623Z,100107.47
2022-09-24T14:23:48.432Z,100111.78
2022-09-24T14:26:41.983Z,100109.13
2022-09-24T14:29:23.877Z,100117.12
2022-09-24T14:31:55.985Z,100109.53
2022-09-24T14:34:26.684Z,100122.91
2022-09-24T14:36:58.546Z,100123.09
2022-09-24T14:39:29.640Z,100135.00
2022-09-24T14:41:59.438Z,100140.97
2022-09-24T14:44:29.875Z,100140.97
2022-09-24T14:46:59.223Z,100155.31
2022-09-24T14:49:44.903Z,100144.38
2022-09-24T14:52:39.283Z,100126.41
2022-09-24T14:55:18.026Z,100130.06
2022-09-24T14:57:49.079Z,100132.66
2022-09-24T15:00:30.834Z,100145.94
2022-09-24T15:03:05.815Z,100148.50
2022-09-24T15:05:33.388Z,100156.69
2022-09-24T15:08:28.253Z,100147.97
2022-09-24T15:10:56.425Z,100153.09
2022-09-24T15:13:26.779Z,100143.50
2022-09-24T15:16:15.853Z,100157.47
2022-09-24T15:18:43.160Z,100163.19
2022-09-24T15:21:13.044Z,100155.03
2022-09-24T15:23:39.913Z,100152.81
2022-09-24T15:26:07.262Z,100155.22
2022-09-24T15:28:34.168Z,100150.22
2022-09-24T15:31:01.266Z,100167.50
2022-09-24T15:33:28.522Z,100163.38
2022-09-24T15:35:55.386Z,100163.94
2022-09-24T15:38:22.440Z,100161.56
2022-09-24T15:40:51.632Z,100169.37
2022-09-24T15:43:24.214Z,100174.47
2022-09-24T15:45:52.189Z,100175.22
2022-09-24T15:48:19.102Z,100170.44
2022-09-24T15:50:47.097Z,100169.34
2022-09-24T15:53:26.849Z,100172.78
2022-09-24T15:56:00.911Z,100180.50
2022-09-24T15:58:28.165Z,100177.38
2022-09-24T16:00:55.341Z,100176.94
2022-09-24T16:03:27.273Z,100181.78
2022-09-24T16:05:54.984Z,100166.13
2022-09-24T16:08:22.802Z,100179.87
2022-09-24T16:10:50.138Z,100176.78
2022-09-24T16:13:18.540Z,100176.13
2022-09-24T16:15:46.182Z,100179.00
2022-09-24T16:18:15.500Z,100168.59
2022-09-24T16:20:44.855Z,100178.50
2022-09-24T16:23:17.025Z,100173.00
2022-09-24T16:25:58.094Z,100176.50
2022-09-24T16:28:27.540Z,100179.81
2022-09-24T16:30:54.884Z,100176.88
2022-09-24T16:33:22.253Z,100173.28
2022-09-24T16:35:49.539Z,100183.75
2022-09-24T16:38:22.589Z,100173.19
2022-09-24T16:40:59.819Z,100190.53
2022-09-24T16:43:26.910Z,100188.53
2022-09-24T16:45:54.139Z,100191.00
2022-09-24T16:48:21.031Z,100185.31
2022-09-24T16:50:49.561Z,100190.44
2022-09-24T16:53:16.831Z,100190.25
2022-09-24T16:55:43.654Z,100178.06
2022-09-24T16:58:10.781Z,100155.56
2022-09-24T17:00:42.657Z,100186.94
2022-09-24T17:03:11.281Z,100189.16
2022-09-24T17:05:40.749Z,100192.00
2022-09-24T17:08:07.572Z,100190.16
2022-09-24T17:10:34.432Z,100192.66
2022-09-24T17:13:01.872Z,100189.34
2022-09-24T17:15:28.850Z,100176.13
2022-09-24T17:17:55.797Z,100189.72
2022-09-24T17:20:23.008Z,100189.09
2022-09-24T17:22:50.348Z,100187.44
2022-09-24T17:25:17.321Z,100179.72
2022-09-24T17:27:45.026Z,100178.88
2022-09-24T17:30:12.311Z,100188.81
2022-09-24T17:32:39.209Z,100196.59
2022-09-24T17:35:08.092Z,100178.88
2022-09-24T17:37:35.430Z,100195.78
2022-09-24T17:40:04.245Z,100189.66
2022-09-24T17:42:32.351Z,100190.19
2022-09-24T17:44:59.193Z,100184.22
2022-09-24T17:47:45.947Z,100198.00
2022-09-24T17:50:13.312Z,100194.50
2022-09-24T17:52:40.165Z,100200.19
2022-09-24T17:55:08.394Z,100203.03
2022-09-24T17:57:35.564Z,100213.06
2022-09-24T18:00:02.725Z,100210.78
2022-09-24T18:02:38.438Z,100211.59
2022-09-24T18:05:07.464Z,100211.59
2022-09-24T18:07:34.309Z,100202.13
2022-09-24T18:10:01.178Z,100208.66
2022-09-24T18:12:28.458Z,100208.66
2022-09-24T18:14:55.346Z,100216.66
2022-09-24T18:17:22.211Z,100197.09
2022-09-24T18:19:49.537Z,100209.94
2022-09-24T18:22:16.423Z,100217.72
2022-09-24T18:24:44.565Z,100198.62
2022-09-24T18:27:15.297Z,100205.25
2022-09-24T18:29:44.450Z,100206.72
2022-09-24T18:32:11.947Z,100204.03
2022-09-24T18:34:38.771Z,100211.22
2022-09-24T18:37:06.085Z,100208.75
2022-09-24T18:39:33.316Z,100208.75
2022-09-24T18:42:00.189Z,100212.41
2022-09-24T18:44:27.167Z,100208.94
2022-09-24T18:46:54.679Z,100211.59
2022-09-24T18:49:21.718Z,100211.59
2022-09-24T18:51:49.088Z,100209.13
2022-09-24T18:54:18.278Z,100212.22
2022-09-24T18:56:47.526Z,100212.88
2022-09-24T18:59:17.546Z,100200.31
2022-09-24T19:01:46.338Z,100211.69
2022-09-24T19:04:14.400Z,100213.34
2022-09-24T19:06:44.717Z,100209.56
2022-09-24T19:09:13.929Z,100209.03
2022-09-24T19:11:42.003Z,100216.84
2022-09-24T19:14:11.427Z,100202.97
2022-09-24T19:16:39.111Z,100213.25
2022-09-24T19:19:06.033Z,100213.53
2022-09-24T19:21:32.955Z,100206.25
2022-09-24T19:24:00.468Z,100205.72
2022-09-24T19:26:34.602Z,100220.50
2022-09-24T19:29:02.830Z,100220.50
2022-09-24T19:31:32.337Z,100205.44
2022-09-24T19:34:03.115Z,100208.94
2022-09-24T19:36:36.256Z,100210.78
2022-09-24T19:39:05.877Z,100218.22
2022-09-24T19:41:33.164Z,100222.88
2022-09-24T19:44:04.588Z,100225.09
2022-09-24T19:46:35.036Z,100217.66
2022-09-24T19:49:01.949Z,100225.00
2022-09-24T19:51:31.944Z,100214.25
2022-09-24T19:54:02.426Z,100223.91
2022-09-24T19:56:29.924Z,100226.75
2022-09-24T19:58:59.513Z,100225.09
2022-09-24T20:01:29.639Z,100217.19
2022-09-24T20:03:58.312Z,100231.44
2022-09-24T20:06:29.176Z,100241.44
2022-09-24T20:08:57.413Z,100223.34
2022-09-24T20:11:25.766Z,100226.81
2022-09-24T20:13:54.427Z,100240.25
2022-09-24T20:16:26.210Z,100231.44
2022-09-24T20:18:59.473Z,100242.53
2022-09-24T20:21:32.175Z,100251.34
2022-09-24T20:23:59.507Z,100242.72
2022-09-24T20:26:45.723Z,100239.75
2022-09-24T20:29:13.954Z,100252.38
2022-09-24T20:31:42.954Z,100256.03
2022-09-24T20:34:10.009Z,100256.41
2022-09-24T20:36:37.024Z,100244.19
2022-09-24T20:39:04.337Z,100260.44
2022-09-24T20:41:31.460Z,100261.78
2022-09-24T20:43:58.386Z,100257.84
2022-09-24T20:46:28.695Z,100257.19
2022-09-24T20:49:00.934Z,100254.63
2022-09-24T20:51:30.505Z,100269.22
2022-09-24T20:53:58.938Z,100262.59
2022-09-24T20:56:26.912Z,100261.28
2022-09-24T20:58:54.241Z,100258.00
2022-09-24T21:01:22.459Z,100272.66
2022-09-24T21:03:50.322Z,100254.94
2022-09-24T21:06:20.773Z,100257.59
2022-09-24T21:08:47.650Z,100271.88
2022-09-24T21:11:20.562Z,100261.44
2022-09-24T21:13:50.818Z,100267.78
2022-09-24T21:16:24.535Z,100267.09
2022-09-24T21:18:55.937Z,100250.19
2022-09-24T21:21:29.009Z,100262.16
2022-09-24T21:23:59.205Z,100262.97
2022-09-24T21:26:28.787Z,100258.16
2022-09-24T21:28:59.627Z,100265.34
2022-09-24T21:31:29.257Z,100263.84
2022-09-24T21:33:57.170Z,100268.72
2022-09-24T21:36:28.634Z,100255.94
2022-09-24T21:39:00.562Z,100261.25
2022-09-24T21:41:30.349Z,100266.09
2022-09-24T21:43:57.975Z,100270.78
2022-09-24T21:46:26.706Z,100261.97
2022-09-24T21:48:55.089Z,100262.28
2022-09-24T21:51:23.088Z,100269.59
2022-09-24T21:53:55.277Z,100275.94
2022-09-24T21:56:22.467Z,100265.34
2022-09-24T21:58:50.513Z,100274.63
2022-09-24T22:01:27.138Z,100268.34
2022-09-24T22:03:56.079Z,100274.63
2022-09-24T22:06:28.541Z,100281.13
2022-09-24T22:08:58.103Z,100280.47
2022-09-24T22:11:26.377Z,100282.31
2022-09-24T22:13:54.396Z,100271.19
2022-09-24T22:16:22.351Z,100279.34
2022-09-24T22:18:49.334Z,100274.84
2022-09-24T22:21:16.184Z,100278.69
2022-09-24T22:23:43.441Z,100280.50
2022-09-24T22:26:12.998Z,100287.66
2022-09-24T22:28:40.922Z,100284.37
2022-09-24T22:31:11.053Z,100287.38
2022-09-24T22:33:56.962Z,100277.63
2022-09-24T22:36:24.762Z,100284.22
2022-09-24T22:38:52.831Z,100276.41
2022-09-24T22:41:19.757Z,100289.25
2022-09-24T22:43:46.865Z,100285.09
2022-09-24T22:46:14.192Z,100276.47
2022-09-24T22:48:41.043Z,100278.44
2022-09-24T22:51:09.029Z,100275.66
2022-09-24T22:53:38.145Z,100278.31
2022-09-24T22:56:07.610Z,100281.81
2022-09-24T22:58:36.204Z,100282.16
2022-09-24T23:01:15.222Z,100291.31
2022-09-24T23:03:44.300Z,100276.25
2022-09-24T23:06:12.067Z,100281.56
2022-09-24T23:08:40.807Z,100283.69
2022-09-24T23:11:15.297Z,100278.56
2022-09-24T23:13:44.451Z,100284.69
2022-09-24T23:16:14.885Z,100279.38
2022-09-24T23:18:43.488Z,100288.50
2022-09-24T23:21:13.567Z,100281.56
2022-09-24T23:23:40.781Z,100284.22
2022-09-24T23:26:16.394Z,100277.22
2022-09-24T23:28:48.343Z,100259.84
2022-09-24T23:31:15.245Z,100283.72
2022-09-24T23:33:42.901Z,100281.22
2022-09-24T23:36:12.950Z,100275.09
2022-09-24T23:38:40.731Z,100277.91
2022-09-24T23:41:09.567Z,100274.59
2022-09-24T23:43:37.171Z,100274.59
2022-09-24T23:46:04.800Z,100266.63
2022-09-24T23:48:32.235Z,100260.19
2022-09-24T23:51:00.311Z,100270.13
2022-09-24T23:53:27.553Z,100279.06
2022-09-24T23:55:55.424Z,100279.06
2022-09-24T23:58:24.906Z,100274.59
